createdAt,value
2023-01-20T00:00:33.750Z,0.00
2023-01-20T00:01:33.687Z,0.00
2023-01-20T00:02:33.696Z,0.00
2023-01-20T00:03:33.695Z,0.00
2023-01-20T00:04:54.646Z,0.00
2023-01-20T00:05:33.638Z,0.00
2023-01-20T00:06:33.615Z,0.00
2023-01-20T00:07:33.603Z,0.00
2023-01-20T00:08:33.591Z,0.00
2023-01-20T00:09:33.623Z,0.00
2023-01-20T00:10:54.568Z,0.00
2023-01-20T00:11:33.576Z,0.00
2023-01-20T00:12:33.555Z,0.00
2023-01-20T00:13:33.544Z,0.00
2023-01-20T00:14:33.516Z,0.00
2023-01-20T00:15:33.497Z,0.00
2023-01-20T00:16:54.493Z,0.00
2023-01-20T00:17:33.480Z,0.00
2023-01-20T00:18:33.494Z,0.00
2023-01-20T00:19:33.450Z,0.00
2023-01-20T00:20:33.437Z,0.00
2023-01-20T00:21:33.422Z,0.00
2023-01-20T00:22:54.408Z,0.00
2023-01-20T00:23:33.403Z,0.00
2023-01-20T00:24:33.394Z,0.00
2023-01-20T00:25:33.369Z,0.00
2023-01-20T00:26:33.364Z,0.00
2023-01-20T00:27:33.342Z,0.00
2023-01-20T00:28:54.330Z,0.00
2023-01-20T00:29:33.372Z,0.00
2023-01-20T00:30:33.305Z,0.00
2023-01-20T00:31:33.473Z,0.00
2023-01-20T00:32:33.278Z,0.00
2023-01-20T00:33:33.267Z,0.00
2023-01-20T00:34:54.251Z,0.00
2023-01-20T00:35:33.239Z,0.00
2023-01-20T00:36:33.228Z,0.00
2023-01-20T00:37:33.215Z,0.00
2023-01-20T00:38:33.198Z,0.00
2023-01-20T00:39:33.193Z,0.00
2023-01-20T00:40:54.176Z,0.00
2023-01-20T00:41:33.161Z,0.00
2023-01-20T00:42:33.154Z,0.00
2023-01-20T00:43:33.136Z,0.00
2023-01-20T00:44:33.118Z,0.00
2023-01-20T00:45:33.114Z,0.00
2023-01-20T00:46:54.189Z,0.00
2023-01-20T00:47:33.086Z,0.00
2023-01-20T00:48:33.068Z,0.00
2023-01-20T00:49:33.057Z,0.00
2023-01-20T00:50:33.052Z,0.00
2023-01-20T00:51:33.052Z,0.00
2023-01-20T00:52:54.027Z,0.00
2023-01-20T00:53:33.004Z,0.00
2023-01-20T00:54:32.988Z,0.00
2023-01-20T00:55:32.985Z,0.00
2023-01-20T00:56:33.009Z,0.00
2023-01-20T00:57:32.956Z,0.00
2023-01-20T00:58:53.939Z,0.00
2023-01-20T00:59:32.926Z,0.00
2023-01-20T01:00:32.938Z,0.00
2023-01-20T01:01:33.000Z,0.00
2023-01-20T01:02:32.942Z,0.00
2023-01-20T01:03:32.887Z,0.00
2023-01-20T01:04:53.867Z,0.00
2023-01-20T01:05:32.867Z,0.00
2023-01-20T01:06:32.829Z,0.00
2023-01-20T01:07:32.829Z,0.00
2023-01-20T01:08:32.808Z,0.00
2023-01-20T01:09:32.794Z,0.00
2023-01-20T01:10:53.783Z,0.00
2023-01-20T01:11:32.766Z,0.00
2023-01-20T01:12:32.754Z,0.00
2023-01-20T01:13:32.752Z,0.00
2023-01-20T01:14:32.728Z,0.00
2023-01-20T01:15:32.714Z,0.00
2023-01-20T01:16:54.950Z,0.00
2023-01-20T01:17:32.701Z,0.00
2023-01-20T01:18:32.683Z,0.00
2023-01-20T01:19:32.663Z,0.00
2023-01-20T01:20:32.644Z,0.00
2023-01-20T01:21:32.643Z,0.00
2023-01-20T01:22:53.628Z,0.00
2023-01-20T01:23:32.610Z,0.00
2023-01-20T01:24:32.638Z,0.00
2023-01-20T01:25:32.583Z,0.00
2023-01-20T01:26:32.563Z,0.00
2023-01-20T01:27:32.551Z,0.00
2023-01-20T01:28:53.556Z,0.00
2023-01-20T01:29:32.544Z,0.00
2023-01-20T01:30:32.520Z,0.00
2023-01-20T01:31:32.557Z,0.00
2023-01-20T01:32:32.487Z,0.00
2023-01-20T01:33:32.484Z,0.00
2023-01-20T01:34:53.472Z,0.00
2023-01-20T01:35:32.455Z,0.00
2023-01-20T01:36:32.444Z,0.00
2023-01-20T01:37:32.417Z,0.00
2023-01-20T01:38:32.412Z,0.00
2023-01-20T01:39:32.391Z,0.00
2023-01-20T01:40:53.391Z,0.00
2023-01-20T01:41:32.363Z,0.00
2023-01-20T01:42:32.359Z,0.00
2023-01-20T01:43:32.337Z,0.00
2023-01-20T01:44:32.325Z,0.00
2023-01-20T01:45:32.342Z,0.00
2023-01-20T01:46:53.304Z,0.00
2023-01-20T01:47:32.283Z,0.00
2023-01-20T01:48:32.275Z,0.00
2023-01-20T01:49:32.254Z,0.00
2023-01-20T01:50:32.245Z,0.00
2023-01-20T01:51:32.232Z,0.00
2023-01-20T01:52:53.227Z,0.00
2023-01-20T01:53:32.203Z,0.00
2023-01-20T01:54:32.188Z,0.00
2023-01-20T01:55:32.183Z,0.00
2023-01-20T01:56:32.171Z,0.00
2023-01-20T01:57:32.148Z,0.00
2023-01-20T01:58:53.143Z,0.00
2023-01-20T01:59:32.133Z,0.00
2023-01-20T02:00:32.211Z,0.00
2023-01-20T02:01:32.190Z,0.00
2023-01-20T02:02:32.104Z,0.00
2023-01-20T02:03:32.070Z,0.00
2023-01-20T02:04:53.059Z,0.00
2023-01-20T02:05:32.048Z,0.00
2023-01-20T02:06:32.037Z,0.00
2023-01-20T02:07:32.020Z,0.00
2023-01-20T02:08:32.013Z,0.00
2023-01-20T02:09:32.003Z,0.00
2023-01-20T02:10:52.982Z,0.00
2023-01-20T02:11:31.966Z,0.00
2023-01-20T02:12:31.946Z,0.00
2023-01-20T02:13:31.937Z,0.00
2023-01-20T02:14:31.920Z,0.00
2023-01-20T02:15:31.925Z,0.00
2023-01-20T02:16:52.899Z,0.00
2023-01-20T02:17:31.886Z,0.00
2023-01-20T02:18:31.866Z,0.00
2023-01-20T02:19:31.857Z,0.00
2023-01-20T02:20:31.843Z,0.00
2023-01-20T02:21:31.840Z,0.00
2023-01-20T02:22:52.847Z,0.00
2023-01-20T02:23:31.801Z,0.00
2023-01-20T02:24:31.787Z,0.00
2023-01-20T02:25:31.778Z,0.00
2023-01-20T02:26:31.759Z,0.00
2023-01-20T02:27:31.754Z,0.00
2023-01-20T02:28:52.733Z,0.00
2023-01-20T02:29:31.718Z,0.00
2023-01-20T02:30:31.733Z,0.00
2023-01-20T02:31:31.732Z,0.00
2023-01-20T02:32:31.680Z,0.00
2023-01-20T02:33:31.665Z,0.00
2023-01-20T02:34:52.651Z,0.00
2023-01-20T02:35:31.645Z,0.00
2023-01-20T02:36:31.625Z,0.00
2023-01-20T02:37:31.611Z,0.00
2023-01-20T02:38:31.599Z,0.00
2023-01-20T02:39:31.583Z,0.00
2023-01-20T02:40:52.572Z,0.00
2023-01-20T02:41:31.559Z,0.00
2023-01-20T02:42:31.541Z,0.00
2023-01-20T02:43:31.542Z,0.00
2023-01-20T02:44:31.514Z,0.00
2023-01-20T02:45:31.569Z,0.00
2023-01-20T02:46:52.536Z,0.00
2023-01-20T02:47:31.480Z,0.00
2023-01-20T02:48:31.478Z,0.00
2023-01-20T02:49:31.449Z,0.00
2023-01-20T02:50:31.440Z,0.00
2023-01-20T02:51:31.431Z,0.00
2023-01-20T02:52:52.415Z,0.00
2023-01-20T02:53:31.403Z,0.00
2023-01-20T02:54:31.433Z,0.00
2023-01-20T02:55:31.389Z,0.00
2023-01-20T02:56:31.374Z,0.00
2023-01-20T02:57:31.343Z,0.00
2023-01-20T02:58:52.338Z,0.00
2023-01-20T02:59:31.317Z,0.00
2023-01-20T03:00:31.300Z,0.00
2023-01-20T03:01:31.365Z,0.00
2023-01-20T03:02:31.324Z,0.00
2023-01-20T03:03:31.282Z,0.00
2023-01-20T03:04:52.256Z,0.00
2023-01-20T03:05:31.262Z,0.00
2023-01-20T03:06:31.238Z,0.00
2023-01-20T03:07:31.215Z,0.00
2023-01-20T03:08:31.218Z,0.00
2023-01-20T03:09:31.184Z,0.00
2023-01-20T03:10:52.166Z,0.00
2023-01-20T03:11:31.163Z,0.00
2023-01-20T03:12:31.139Z,0.00
2023-01-20T03:13:31.132Z,0.00
2023-01-20T03:14:31.125Z,0.00
2023-01-20T03:15:31.105Z,0.00
2023-01-20T03:16:52.164Z,0.00
2023-01-20T03:17:31.096Z,0.00
2023-01-20T03:18:31.074Z,0.00
2023-01-20T03:19:31.060Z,0.00
2023-01-20T03:20:31.043Z,0.00
2023-01-20T03:21:31.042Z,0.00
2023-01-20T03:22:52.011Z,0.00
2023-01-20T03:23:31.049Z,0.00
2023-01-20T03:24:30.987Z,0.00
2023-01-20T03:25:30.968Z,0.00
2023-01-20T03:26:30.968Z,0.00
2023-01-20T03:27:30.954Z,0.00
2023-01-20T03:28:51.926Z,0.00
2023-01-20T03:29:30.962Z,0.00
2023-01-20T03:30:30.987Z,0.00
2023-01-20T03:31:31.051Z,0.00
2023-01-20T03:32:30.876Z,0.00
2023-01-20T03:33:30.863Z,0.00
2023-01-20T03:34:51.850Z,0.00
2023-01-20T03:35:30.837Z,0.00
2023-01-20T03:36:30.824Z,0.00
2023-01-20T03:37:30.809Z,0.00
2023-01-20T03:38:30.791Z,0.00
2023-01-20T03:39:30.791Z,0.00
2023-01-20T03:40:51.775Z,0.00
2023-01-20T03:41:30.765Z,0.00
2023-01-20T03:42:30.746Z,0.00
2023-01-20T03:43:30.736Z,0.00
2023-01-20T03:44:30.717Z,0.00
2023-01-20T03:45:30.702Z,0.00
2023-01-20T03:46:51.700Z,0.00
2023-01-20T03:47:30.686Z,0.00
2023-01-20T03:48:30.662Z,0.00
2023-01-20T03:49:30.661Z,0.00
2023-01-20T03:50:30.642Z,0.00
2023-01-20T03:51:30.632Z,0.00
2023-01-20T03:52:51.612Z,0.00
2023-01-20T03:53:30.603Z,0.00
2023-01-20T03:54:30.589Z,0.00
2023-01-20T03:55:30.567Z,0.00
2023-01-20T03:56:30.553Z,0.00
2023-01-20T03:57:30.548Z,0.00
2023-01-20T03:58:51.537Z,0.00
2023-01-20T03:59:30.519Z,0.00
2023-01-20T04:00:30.503Z,0.00
2023-01-20T04:01:30.575Z,0.00
2023-01-20T04:02:30.477Z,0.00
2023-01-20T04:03:30.484Z,0.00
2023-01-20T04:04:51.450Z,0.00
2023-01-20T04:05:30.441Z,0.00
2023-01-20T04:06:30.422Z,0.00
2023-01-20T04:07:30.416Z,0.00
2023-01-20T04:08:30.397Z,0.00
2023-01-20T04:09:30.384Z,0.00
2023-01-20T04:10:51.384Z,0.00
2023-01-20T04:11:30.355Z,0.00
2023-01-20T04:12:30.343Z,0.00
2023-01-20T04:13:30.332Z,0.00
2023-01-20T04:14:30.311Z,0.00
2023-01-20T04:15:30.599Z,0.00
2023-01-20T04:16:51.292Z,0.00
2023-01-20T04:17:30.280Z,0.00
2023-01-20T04:18:30.263Z,0.00
2023-01-20T04:19:30.246Z,0.00
2023-01-20T04:20:30.235Z,0.00
2023-01-20T04:21:30.224Z,0.00
2023-01-20T04:22:51.212Z,0.00
2023-01-20T04:23:30.202Z,0.00
2023-01-20T04:24:30.185Z,0.00
2023-01-20T04:25:30.176Z,0.00
2023-01-20T04:26:30.162Z,0.00
2023-01-20T04:27:30.148Z,0.00
2023-01-20T04:28:51.132Z,0.00
2023-01-20T04:29:30.125Z,0.00
2023-01-20T04:30:30.123Z,0.00
2023-01-20T04:31:31.559Z,0.00
2023-01-20T04:32:30.093Z,0.00
2023-01-20T04:33:30.091Z,0.00
2023-01-20T04:34:51.048Z,0.00
2023-01-20T04:35:30.033Z,0.00
2023-01-20T04:36:30.013Z,0.00
2023-01-20T04:37:30.020Z,0.00
2023-01-20T04:38:29.989Z,0.00
2023-01-20T04:39:29.977Z,0.00
2023-01-20T04:40:50.964Z,0.00
2023-01-20T04:41:29.953Z,0.00
2023-01-20T04:42:29.943Z,0.00
2023-01-20T04:43:29.923Z,0.00
2023-01-20T04:44:29.911Z,0.00
2023-01-20T04:45:29.903Z,0.00
2023-01-20T04:46:50.894Z,0.00
2023-01-20T04:47:29.939Z,0.00
2023-01-20T04:48:29.854Z,0.00
2023-01-20T04:49:29.846Z,0.00
2023-01-20T04:50:29.834Z,0.00
2023-01-20T04:51:29.815Z,0.00
2023-01-20T04:52:50.811Z,0.00
2023-01-20T04:53:29.797Z,0.00
2023-01-20T04:54:29.773Z,0.00
2023-01-20T04:55:29.765Z,0.00
2023-01-20T04:56:29.747Z,0.00
2023-01-20T04:57:29.735Z,0.00
2023-01-20T04:58:50.723Z,0.00
2023-01-20T04:59:29.738Z,0.00
2023-01-20T05:00:29.702Z,0.00
2023-01-20T05:01:29.780Z,0.00
2023-01-20T05:02:29.694Z,0.00
2023-01-20T05:03:29.652Z,0.00
2023-01-20T05:04:50.644Z,0.00
2023-01-20T05:05:29.632Z,0.00
2023-01-20T05:06:29.620Z,0.00
2023-01-20T05:07:29.602Z,0.00
2023-01-20T05:08:29.588Z,0.00
2023-01-20T05:09:29.575Z,0.00
2023-01-20T05:10:50.571Z,0.00
2023-01-20T05:11:29.545Z,0.00
2023-01-20T05:12:29.570Z,0.00
2023-01-20T05:13:29.541Z,0.00
2023-01-20T05:14:29.520Z,0.00
2023-01-20T05:15:29.500Z,0.00
2023-01-20T05:16:50.493Z,0.00
2023-01-20T05:17:29.470Z,0.00
2023-01-20T05:18:29.453Z,0.00
2023-01-20T05:19:29.439Z,0.00
2023-01-20T05:20:29.431Z,0.00
2023-01-20T05:21:29.413Z,0.00
2023-01-20T05:22:50.428Z,0.00
2023-01-20T05:23:29.382Z,0.00
2023-01-20T05:24:29.379Z,0.00
2023-01-20T05:25:29.378Z,0.00
2023-01-20T05:26:29.359Z,0.00
2023-01-20T05:27:29.337Z,0.00
2023-01-20T05:28:50.324Z,0.00
2023-01-20T05:29:29.309Z,0.00
2023-01-20T05:30:29.419Z,0.00
2023-01-20T05:31:29.358Z,0.00
2023-01-20T05:32:29.294Z,0.00
2023-01-20T05:33:29.270Z,0.00
2023-01-20T05:34:50.247Z,0.00
2023-01-20T05:35:29.230Z,0.00
2023-01-20T05:36:29.220Z,0.00
2023-01-20T05:37:29.196Z,0.00
2023-01-20T05:38:29.193Z,0.00
2023-01-20T05:39:29.173Z,0.00
2023-01-20T05:40:50.189Z,0.00
2023-01-20T05:41:29.146Z,0.00
2023-01-20T05:42:29.141Z,0.00
2023-01-20T05:43:29.124Z,0.00
2023-01-20T05:44:29.112Z,0.00
2023-01-20T05:45:29.101Z,0.00
2023-01-20T05:46:50.091Z,0.00
2023-01-20T05:47:29.063Z,0.00
2023-01-20T05:48:29.057Z,0.00
2023-01-20T05:49:29.039Z,0.00
2023-01-20T05:50:29.050Z,0.00
2023-01-20T05:51:29.016Z,0.00
2023-01-20T05:52:50.005Z,0.00
2023-01-20T05:53:29.021Z,0.00
2023-01-20T05:54:28.978Z,0.00
2023-01-20T05:55:28.968Z,0.00
2023-01-20T05:56:28.943Z,0.00
2023-01-20T05:57:28.937Z,0.00
2023-01-20T05:58:49.933Z,0.00
2023-01-20T05:59:28.906Z,0.00
2023-01-20T06:00:28.895Z,0.00
2023-01-20T06:01:28.903Z,0.00
2023-01-20T06:02:28.905Z,0.00
2023-01-20T06:03:28.885Z,0.00
2023-01-20T06:04:49.838Z,0.00
2023-01-20T06:05:28.827Z,0.00
2023-01-20T06:06:28.812Z,0.00
2023-01-20T06:07:28.819Z,0.00
2023-01-20T06:08:28.781Z,0.00
2023-01-20T06:09:28.771Z,0.00
2023-01-20T06:10:50.652Z,0.00
2023-01-20T06:11:28.760Z,0.00
2023-01-20T06:12:28.727Z,0.00
2023-01-20T06:13:28.714Z,0.00
2023-01-20T06:14:28.701Z,0.00
2023-01-20T06:15:28.691Z,0.00
2023-01-20T06:16:49.676Z,0.00
2023-01-20T06:17:28.664Z,0.00
2023-01-20T06:18:28.742Z,0.00
2023-01-20T06:19:28.636Z,0.00
2023-01-20T06:20:28.623Z,0.00
2023-01-20T06:21:28.615Z,0.00
2023-01-20T06:22:49.601Z,0.00
2023-01-20T06:23:28.588Z,0.00
2023-01-20T06:24:28.571Z,0.00
2023-01-20T06:25:28.587Z,0.00
2023-01-20T06:26:28.539Z,0.00
2023-01-20T06:27:28.534Z,0.00
2023-01-20T06:28:49.532Z,0.00
2023-01-20T06:29:28.509Z,0.00
2023-01-20T06:30:28.486Z,0.00
2023-01-20T06:31:28.541Z,0.00
2023-01-20T06:32:28.457Z,0.00
2023-01-20T06:33:28.446Z,0.00
2023-01-20T06:34:49.438Z,0.00
2023-01-20T06:35:28.446Z,0.00
2023-01-20T06:36:28.418Z,0.00
2023-01-20T06:37:28.392Z,0.00
2023-01-20T06:38:28.385Z,0.00
2023-01-20T06:39:28.368Z,0.00
2023-01-20T06:40:49.361Z,0.00
2023-01-20T06:41:28.337Z,4.00
2023-01-20T06:42:28.322Z,4.00
2023-01-20T06:43:28.321Z,0.00
2023-01-20T06:44:28.304Z,4.00
2023-01-20T06:45:28.284Z,4.00
2023-01-20T06:46:49.305Z,4.00
2023-01-20T06:47:28.259Z,8.00
2023-01-20T06:48:28.240Z,4.00
2023-01-20T06:49:28.235Z,4.00
2023-01-20T06:50:28.216Z,8.00
2023-01-20T06:51:28.203Z,8.00
2023-01-20T06:52:49.189Z,8.00
2023-01-20T06:53:28.174Z,12.00
2023-01-20T06:54:28.167Z,12.00
2023-01-20T06:55:28.150Z,12.00
2023-01-20T06:56:28.144Z,12.00
2023-01-20T06:57:28.121Z,16.00
2023-01-20T06:58:49.128Z,16.00
2023-01-20T06:59:28.096Z,20.00
2023-01-20T07:00:28.190Z,20.00
2023-01-20T07:01:28.303Z,24.00
2023-01-20T07:02:28.169Z,24.00
2023-01-20T07:03:28.042Z,28.00
2023-01-20T07:04:49.028Z,28.00
2023-01-20T07:05:28.014Z,32.00
2023-01-20T07:06:28.011Z,36.00
2023-01-20T07:07:28.004Z,36.00
2023-01-20T07:08:27.970Z,44.00
2023-01-20T07:09:27.953Z,44.00
2023-01-20T07:10:48.950Z,48.00
2023-01-20T07:11:27.961Z,52.00
2023-01-20T07:12:27.911Z,56.00
2023-01-20T07:13:27.903Z,60.00
2023-01-20T07:14:27.887Z,64.00
2023-01-20T07:15:27.886Z,68.00
2023-01-20T07:16:49.005Z,76.00
2023-01-20T07:17:27.848Z,84.00
2023-01-20T07:18:27.833Z,88.00
2023-01-20T07:19:27.819Z,92.00
2023-01-20T07:20:27.804Z,96.00
2023-01-20T07:21:27.797Z,100.00
2023-01-20T07:22:48.787Z,104.00
2023-01-20T07:23:27.764Z,108.00
2023-01-20T07:24:27.750Z,116.00
2023-01-20T07:25:27.744Z,120.00
2023-01-20T07:26:27.721Z,128.00
2023-01-20T07:27:27.710Z,132.00
2023-01-20T07:28:48.699Z,140.00
2023-01-20T07:29:27.690Z,152.00
2023-01-20T07:30:27.686Z,160.00
2023-01-20T07:31:27.758Z,168.00
2023-01-20T07:32:27.643Z,172.00
2023-01-20T07:33:27.627Z,176.00
2023-01-20T07:34:50.214Z,184.00
2023-01-20T07:35:27.597Z,188.00
2023-01-20T07:36:27.593Z,188.00
2023-01-20T07:37:27.586Z,192.00
2023-01-20T07:38:27.557Z,192.00
2023-01-20T07:39:27.547Z,196.00
2023-01-20T07:40:48.538Z,192.00
2023-01-20T07:41:27.522Z,196.00
2023-01-20T07:42:27.519Z,192.00
2023-01-20T07:43:27.496Z,196.00
2023-01-20T07:44:27.485Z,204.00
2023-01-20T07:45:27.483Z,212.00
2023-01-20T07:46:48.453Z,212.00
2023-01-20T07:47:27.465Z,212.00
2023-01-20T07:48:27.420Z,212.00
2023-01-20T07:49:27.415Z,212.00
2023-01-20T07:50:27.461Z,216.00
2023-01-20T07:51:27.377Z,216.00
2023-01-20T07:52:48.366Z,208.00
2023-01-20T07:53:27.354Z,216.00
2023-01-20T07:54:27.343Z,228.00
2023-01-20T07:55:27.327Z,240.00
2023-01-20T07:56:27.311Z,248.00
2023-01-20T07:57:27.297Z,260.00
2023-01-20T07:58:48.289Z,268.00
2023-01-20T07:59:27.278Z,292.00
2023-01-20T08:00:27.261Z,300.00
2023-01-20T08:01:27.358Z,312.00
2023-01-20T08:02:27.237Z,328.00
2023-01-20T08:03:27.541Z,344.00
2023-01-20T08:04:48.235Z,360.00
2023-01-20T08:05:27.194Z,372.00
2023-01-20T08:06:27.174Z,384.00
2023-01-20T08:07:27.162Z,396.00
2023-01-20T08:08:27.148Z,428.00
2023-01-20T08:09:27.144Z,448.00
2023-01-20T08:10:48.148Z,464.00
2023-01-20T08:11:27.112Z,512.00
2023-01-20T08:12:27.097Z,528.00
2023-01-20T08:13:27.083Z,532.00
2023-01-20T08:14:27.082Z,564.00
2023-01-20T08:15:27.049Z,552.00
2023-01-20T08:16:48.086Z,528.00
2023-01-20T08:17:27.026Z,540.00
2023-01-20T08:18:27.009Z,544.00
2023-01-20T08:19:26.988Z,548.00
2023-01-20T08:20:26.988Z,548.00
2023-01-20T08:21:26.962Z,552.00
2023-01-20T08:22:47.958Z,564.00
2023-01-20T08:23:26.938Z,564.00
2023-01-20T08:24:26.966Z,576.00
2023-01-20T08:25:26.911Z,580.00
2023-01-20T08:26:26.896Z,584.00
2023-01-20T08:27:26.880Z,596.00
2023-01-20T08:28:47.888Z,628.00
2023-01-20T08:29:26.852Z,676.00
2023-01-20T08:30:26.929Z,696.00
2023-01-20T08:31:26.905Z,724.00
2023-01-20T08:32:26.807Z,744.00
2023-01-20T08:33:26.792Z,752.00
2023-01-20T08:34:47.793Z,764.00
2023-01-20T08:35:26.769Z,772.00
2023-01-20T08:36:26.759Z,792.00
2023-01-20T08:37:26.739Z,804.00
2023-01-20T08:38:26.732Z,824.00
2023-01-20T08:39:26.722Z,896.00
2023-01-20T08:40:47.753Z,940.00
2023-01-20T08:41:26.718Z,956.00
2023-01-20T08:42:26.672Z,928.00
2023-01-20T08:43:26.658Z,916.00
2023-01-20T08:44:26.646Z,912.00
2023-01-20T08:45:26.638Z,912.00
2023-01-20T08:46:47.619Z,924.00
2023-01-20T08:47:26.636Z,928.00
2023-01-20T08:48:26.597Z,956.00
2023-01-20T08:49:26.572Z,988.00
2023-01-20T08:50:26.570Z,1020.00
2023-01-20T08:51:26.591Z,1024.00
2023-01-20T08:52:47.536Z,1024.00
2023-01-20T08:53:26.545Z,1016.00
2023-01-20T08:54:26.511Z,1040.00
2023-01-20T08:55:26.499Z,1060.00
2023-01-20T08:56:26.489Z,1096.00
2023-01-20T08:57:26.463Z,1124.00
2023-01-20T08:58:47.456Z,1176.00
2023-01-20T08:59:26.437Z,1204.00
2023-01-20T09:00:26.428Z,1224.00
2023-01-20T09:01:26.428Z,1240.00
2023-01-20T09:02:26.455Z,1216.00
2023-01-20T09:03:26.401Z,1196.00
2023-01-20T09:04:47.375Z,1184.00
2023-01-20T09:05:26.358Z,1176.00
2023-01-20T09:06:26.348Z,1200.00
2023-01-20T09:07:26.333Z,1240.00
2023-01-20T09:08:26.317Z,1276.00
2023-01-20T09:09:26.302Z,1292.00
2023-01-20T09:10:47.297Z,1284.00
2023-01-20T09:11:26.362Z,1312.00
2023-01-20T09:12:26.279Z,1324.00
2023-01-20T09:13:26.242Z,1356.00
2023-01-20T09:14:26.236Z,1360.00
2023-01-20T09:15:26.215Z,1344.00
2023-01-20T09:16:47.215Z,1328.00
2023-01-20T09:17:26.193Z,1316.00
2023-01-20T09:18:26.184Z,1324.00
2023-01-20T09:19:26.173Z,1296.00
2023-01-20T09:20:26.162Z,1248.00
2023-01-20T09:21:26.141Z,1228.00
2023-01-20T09:22:47.132Z,1248.00
2023-01-20T09:23:26.118Z,1260.00
2023-01-20T09:24:26.108Z,1272.00
2023-01-20T09:25:26.105Z,1276.00
2023-01-20T09:26:36.287Z,1252.00
2023-01-20T09:27:26.054Z,1260.00
2023-01-20T09:28:47.053Z,1292.00
2023-01-20T09:29:26.032Z,1328.00
2023-01-20T09:30:26.017Z,1332.00
2023-01-20T09:31:26.054Z,1352.00
2023-01-20T09:32:26.000Z,1384.00
2023-01-20T09:33:25.978Z,1392.00
2023-01-20T09:34:46.978Z,1392.00
2023-01-20T09:35:25.947Z,1396.00
2023-01-20T09:36:28.035Z,1400.00
2023-01-20T09:37:25.923Z,1412.00
2023-01-20T09:38:25.920Z,1432.00
2023-01-20T09:39:25.898Z,1444.00
2023-01-20T09:40:46.886Z,1444.00
2023-01-20T09:41:25.873Z,1428.00
2023-01-20T09:42:25.874Z,1412.00
2023-01-20T09:43:25.845Z,1408.00
2023-01-20T09:44:25.834Z,1400.00
2023-01-20T09:45:25.832Z,1404.00
2023-01-20T09:46:46.811Z,1396.00
2023-01-20T09:47:25.801Z,1388.00
2023-01-20T09:48:25.780Z,1372.00
2023-01-20T09:49:25.757Z,1344.00
2023-01-20T09:50:25.758Z,1296.00
2023-01-20T09:51:25.735Z,1276.00
2023-01-20T09:52:46.729Z,1272.00
2023-01-20T09:53:25.718Z,1268.00
2023-01-20T09:54:25.699Z,1260.00
2023-01-20T09:55:25.688Z,1252.00
2023-01-20T09:56:25.681Z,1228.00
2023-01-20T09:57:25.659Z,1236.00
2023-01-20T09:58:46.654Z,1264.00
2023-01-20T09:59:25.625Z,1292.00
2023-01-20T10:00:25.640Z,1304.00
2023-01-20T10:01:25.653Z,1312.00
2023-01-20T10:02:25.605Z,1336.00
2023-01-20T10:03:25.584Z,1368.00
2023-01-20T10:04:46.575Z,1392.00
2023-01-20T10:05:25.593Z,1416.00
2023-01-20T10:06:25.536Z,1420.00
2023-01-20T10:07:25.531Z,1428.00
2023-01-20T10:08:25.525Z,1456.00
2023-01-20T10:09:25.524Z,1496.00
2023-01-20T10:10:46.504Z,1560.00
2023-01-20T10:11:25.520Z,1648.00
2023-01-20T10:12:25.463Z,1676.00
2023-01-20T10:13:25.453Z,1680.00
2023-01-20T10:14:25.431Z,1660.00
2023-01-20T10:15:25.430Z,1616.00
2023-01-20T10:16:46.410Z,1624.00
2023-01-20T10:17:25.391Z,1684.00
2023-01-20T10:18:25.382Z,1776.00
2023-01-20T10:19:25.373Z,1860.00
2023-01-20T10:20:27.883Z,1892.00
2023-01-20T10:21:25.345Z,1908.00
2023-01-20T10:22:46.325Z,1960.00
2023-01-20T10:23:25.312Z,2040.00
2023-01-20T10:24:25.293Z,2124.00
2023-01-20T10:25:25.290Z,2188.00
2023-01-20T10:26:25.273Z,2172.00
2023-01-20T10:27:25.266Z,2104.00
2023-01-20T10:28:46.250Z,2020.00
2023-01-20T10:29:25.230Z,1940.00
2023-01-20T10:30:25.240Z,1884.00
2023-01-20T10:31:25.267Z,1884.00
2023-01-20T10:32:25.192Z,1892.00
2023-01-20T10:33:25.178Z,1860.00
2023-01-20T10:34:46.185Z,1788.00
2023-01-20T10:35:25.153Z,1748.00
2023-01-20T10:36:25.134Z,1752.00
2023-01-20T10:37:25.133Z,1788.00
2023-01-20T10:38:25.109Z,1848.00
2023-01-20T10:39:25.103Z,1904.00
2023-01-20T10:40:46.105Z,1892.00
2023-01-20T10:41:25.199Z,1820.00
2023-01-20T10:42:25.071Z,1768.00
2023-01-20T10:43:25.049Z,1764.00
2023-01-20T10:44:25.041Z,1792.00
2023-01-20T10:45:25.023Z,1828.00
2023-01-20T10:46:46.027Z,1864.00
2023-01-20T10:47:24.999Z,1888.00
2023-01-20T10:48:24.987Z,1916.00
2023-01-20T10:49:24.973Z,1928.00
2023-01-20T10:50:25.003Z,1984.00
2023-01-20T10:51:24.945Z,2056.00
2023-01-20T10:52:45.927Z,2124.00
2023-01-20T10:53:24.921Z,2172.00
2023-01-20T10:54:24.902Z,2212.00
2023-01-20T10:55:24.889Z,2212.00
2023-01-20T10:56:24.883Z,2200.00
2023-01-20T10:57:24.861Z,2200.00
2023-01-20T10:58:45.850Z,2232.00
2023-01-20T10:59:24.838Z,2264.00
2023-01-20T11:00:24.832Z,2248.00
2023-01-20T11:01:24.874Z,2196.00
2023-01-20T11:02:24.835Z,2148.00
2023-01-20T11:03:24.876Z,2124.00
2023-01-20T11:04:45.774Z,2140.00
2023-01-20T11:05:24.791Z,2180.00
2023-01-20T11:06:24.746Z,2224.00
2023-01-20T11:07:24.729Z,2216.00
2023-01-20T11:08:24.737Z,2220.00
2023-01-20T11:09:24.701Z,2316.00
2023-01-20T11:10:45.707Z,2444.00
2023-01-20T11:11:24.681Z,2564.00
2023-01-20T11:12:24.705Z,2640.00
2023-01-20T11:13:24.652Z,2660.00
2023-01-20T11:14:26.140Z,2596.00
2023-01-20T11:15:24.623Z,2492.00
2023-01-20T11:16:45.649Z,2408.00
2023-01-20T11:17:24.605Z,2376.00
2023-01-20T11:18:24.589Z,2388.00
2023-01-20T11:19:24.573Z,2420.00
2023-01-20T11:20:24.563Z,2412.00
2023-01-20T11:21:24.543Z,2360.00
2023-01-20T11:22:45.542Z,2356.00
2023-01-20T11:23:24.527Z,2404.00
2023-01-20T11:24:24.509Z,2412.00
2023-01-20T11:25:24.498Z,2412.00
2023-01-20T11:26:27.685Z,2424.00
2023-01-20T11:27:24.477Z,2376.00
2023-01-20T11:28:45.470Z,2332.00
2023-01-20T11:29:24.446Z,2308.00
2023-01-20T11:30:24.445Z,2296.00
2023-01-20T11:31:24.460Z,2220.00
2023-01-20T11:32:25.250Z,2168.00
2023-01-20T11:33:24.433Z,2140.00
2023-01-20T11:34:45.381Z,2156.00
2023-01-20T11:35:24.366Z,2192.00
2023-01-20T11:36:24.358Z,2204.00
2023-01-20T11:37:24.336Z,2220.00
2023-01-20T11:38:24.330Z,2256.00
2023-01-20T11:39:24.308Z,2264.00
2023-01-20T11:40:45.301Z,2268.00
2023-01-20T11:41:24.284Z,2292.00
2023-01-20T11:42:24.274Z,2276.00
2023-01-20T11:43:24.266Z,2240.00
2023-01-20T11:44:24.252Z,2192.00
2023-01-20T11:45:24.273Z,2188.00
2023-01-20T11:46:45.251Z,2204.00
2023-01-20T11:47:24.215Z,2240.00
2023-01-20T11:48:24.197Z,2260.00
2023-01-20T11:49:24.177Z,2280.00
2023-01-20T11:50:24.181Z,2276.00
2023-01-20T11:51:24.220Z,2264.00
2023-01-20T11:52:45.168Z,2280.00
2023-01-20T11:53:24.181Z,2276.00
2023-01-20T11:54:24.141Z,2248.00
2023-01-20T11:55:24.123Z,2224.00
2023-01-20T11:56:24.098Z,2216.00
2023-01-20T11:57:24.118Z,2268.00
2023-01-20T11:58:45.082Z,2352.00
2023-01-20T11:59:24.058Z,2412.00
2023-01-20T12:00:24.039Z,2456.00
2023-01-20T12:01:24.031Z,2452.00
2023-01-20T12:02:24.020Z,2464.00
2023-01-20T12:03:24.011Z,2456.00
2023-01-20T12:04:44.998Z,2432.00
2023-01-20T12:05:23.976Z,2396.00
2023-01-20T12:06:23.970Z,2376.00
2023-01-20T12:07:23.949Z,2348.00
2023-01-20T12:08:23.961Z,2336.00
2023-01-20T12:09:23.930Z,2340.00
2023-01-20T12:10:44.930Z,2356.00
2023-01-20T12:11:23.920Z,2384.00
2023-01-20T12:12:23.890Z,2332.00
2023-01-20T12:13:23.883Z,2104.00
2023-01-20T12:14:23.871Z,1968.00
2023-01-20T12:15:23.845Z,2020.00
2023-01-20T12:16:44.873Z,2036.00
2023-01-20T12:17:23.822Z,1992.00
2023-01-20T12:18:23.817Z,1952.00
2023-01-20T12:19:23.807Z,1916.00
2023-01-20T12:20:23.790Z,1884.00
2023-01-20T12:21:23.791Z,1852.00
2023-01-20T12:22:44.782Z,1824.00
2023-01-20T12:23:23.753Z,1848.00
2023-01-20T12:24:30.105Z,1892.00
2023-01-20T12:25:23.733Z,1932.00
2023-01-20T12:26:23.725Z,1996.00
2023-01-20T12:27:23.698Z,2008.00
2023-01-20T12:28:44.691Z,2004.00
2023-01-20T12:29:23.668Z,1964.00
2023-01-20T12:30:23.840Z,1956.00
2023-01-20T12:31:23.686Z,1960.00
2023-01-20T12:32:23.637Z,1956.00
2023-01-20T12:33:23.636Z,1936.00
2023-01-20T12:34:44.812Z,1892.00
2023-01-20T12:35:23.602Z,1840.00
2023-01-20T12:36:23.582Z,1764.00
2023-01-20T12:37:23.563Z,1688.00
2023-01-20T12:38:23.564Z,1660.00
2023-01-20T12:39:23.539Z,1668.00
2023-01-20T12:40:44.535Z,1684.00
2023-01-20T12:41:23.513Z,1728.00
2023-01-20T12:42:23.506Z,1764.00
2023-01-20T12:43:23.488Z,1768.00
2023-01-20T12:44:23.484Z,1776.00
2023-01-20T12:45:23.463Z,1768.00
2023-01-20T12:46:44.455Z,1764.00
2023-01-20T12:47:23.460Z,1800.00